Terminal Aerodrome Forecast
Issued by NWS

Home | Current Version | Previous Version | Text Only | Print | Product List | Glossary On
Versions: 1 2 3 4 5 6 7 8 9 10 11 12 13 14 15 16 17 18 19 20 21
285
FTUS43 KIWX 222337
TAFSBN
TAF
KSBN 222337Z 2300/2324 01008KT 1/2SM FG OVC003
     FM230300 01007KT 1SM BR OVC003
     FM230600 35008KT 1/2SM FG OVC003
     FM231000 35008KT 1SM BR BKN004
     FM231700 34010KT 2SM BR OVC008
     FM232200 33010KT 3SM BR OVC010=

USA.gov is the U.S. government's official web portal to all federal, state and local government web resources and services.